Dry Creek, Louisiana
Current Conditions -  °F | °C
As of 4:15 AM on Wednesday 26 Nov 2014 (Local Time) from KDRI Reporting Station
Clear Clear  
Wind Chill: 38°   Ceiling: Unl
Heat Index: 38°   Visibility: 10mi
Dew Point: 36°   Wind: 0mph
Humidity: 91%   Direction: NA
Pressure: 30.21"   Gusts: NA
Location:  30.67°N, 93.05°W
Report Text: KDRI 261015Z AUTO 00000KT 10SM CLR 04/02 A3021 RMK AO2 T00360023
Loading
Personal Weather Stations






























Interactive Weather Map New forecast layout! Learn more

10-Day Weather Forecast

Advertisements
Track Severe Weather on mobile